SKPE/PEI METAR and TAF weather

Enter ICAO airport designator
Station Type Date Time Source
SKPE METAR 2021/04/13 04:00 UTC NOAA

SKPE 130400Z 10008KT 8000 FEW014 SCT200 21/18 Q1016 RMK HZ A3001


Station Type Date Time Source
SKPE Decoded METAR 2021/04/13 04:00 UTC NOAA

Pereira / Matecana, Colombia (SKPE) 04-49N 075-44W 1342M
Apr 13, 2021 - 12:00 AM EDT / 2021.04.13 0400 UTC
Wind: from the E (100 degrees) at 9 MPH (8 KT):0
Visibility: 4 mile(s):0
Sky conditions: partly cloudy
Weather: haze
Temperature: 69 F (21 C)
Dew Point: 64 F (18 C)
Relative Humidity: 82%
Pressure (altimeter): 30.00 in. Hg (1016 hPa)
ob: SKPE 130400Z 10008KT 8000 FEW014 SCT200 21/18 Q1016 RMK HZ A3001
cycle: 4

Station Type Date Time Source
SKPE TAF 2021/04/13 06:36 UTC NOAA

TAF SKPE 130430Z 1306/1406 11005KT 9999 SCT015
TEMPO 1310/1313 5000 BR -DZ SCT007
BECMG 1315/1317 32008KT
TEMPO 1320/1323 7000 RA SCT017CB TX27/1319Z TN18/1311Z

Example: see airport list